createdAt,value
2022-12-03T00:03:14.447Z,-0.40
2022-12-03T00:08:17.771Z,-0.40
2022-12-03T00:13:20.963Z,-0.30
2022-12-03T00:18:25.763Z,-0.40
2022-12-03T00:23:29.238Z,-0.40
2022-12-03T00:28:32.563Z,-0.40
2022-12-03T00:33:37.285Z,-0.50
2022-12-03T00:38:40.425Z,-0.50
2022-12-03T00:43:43.585Z,-0.40
2022-12-03T00:48:49.672Z,-0.40
2022-12-03T00:53:52.754Z,-0.40
2022-12-03T00:58:55.811Z,-0.40
2022-12-03T01:04:00.248Z,-0.40
2022-12-03T01:09:03.780Z,-0.50
2022-12-03T01:14:08.401Z,-0.40
2022-12-03T01:19:16.458Z,-0.30
2022-12-03T01:24:20.132Z,-0.40
2022-12-03T01:29:23.637Z,-0.50
2022-12-03T01:34:28.345Z,-0.40
2022-12-03T01:39:31.526Z,-0.50
2022-12-03T01:44:36.574Z,-0.50
2022-12-03T01:49:43.188Z,-0.40
2022-12-03T01:54:48.440Z,-0.40
2022-12-03T01:59:52.330Z,-0.40
2022-12-03T02:04:57.294Z,-0.50
2022-12-03T02:10:03.817Z,-0.40
2022-12-03T02:15:08.646Z,-0.40
2022-12-03T02:20:13.618Z,-0.40
2022-12-03T02:25:20.999Z,-0.40
2022-12-03T02:30:27.250Z,-0.50
2022-12-03T02:35:33.924Z,-0.50
2022-12-03T02:40:38.659Z,-0.50
2022-12-03T02:45:44.374Z,-0.50
2022-12-03T02:50:51.524Z,-0.50
2022-12-03T02:55:57.921Z,-0.50
2022-12-03T03:01:04.220Z,-0.50
2022-12-03T03:06:09.163Z,-0.40
2022-12-03T03:11:13.789Z,-0.50
2022-12-03T03:16:17.090Z,-0.50
2022-12-03T03:21:20.445Z,-0.50
2022-12-03T03:26:26.573Z,-0.50
2022-12-03T03:31:29.902Z,-0.50
2022-12-03T03:36:33.257Z,-0.50
2022-12-03T03:41:38.482Z,-0.40
2022-12-03T03:46:42.757Z,-0.50
2022-12-03T03:51:46.671Z,-0.50
2022-12-03T03:56:51.310Z,-0.50
2022-12-03T04:01:54.441Z,-0.60
2022-12-03T04:06:57.507Z,-0.50
2022-12-03T04:12:20.823Z,-0.50
2022-12-03T04:17:24.097Z,-0.50
2022-12-03T04:22:42.156Z,-0.50
2022-12-03T04:28:05.438Z,-0.50
2022-12-03T04:33:27.256Z,-0.50
2022-12-03T04:38:30.398Z,-0.50
2022-12-03T04:43:55.195Z,-0.50
2022-12-03T04:48:58.135Z,-0.60
2022-12-03T04:54:01.209Z,-0.50
2022-12-03T04:59:05.662Z,-0.60
2022-12-03T05:04:08.791Z,-0.60
2022-12-03T05:09:12.324Z,-0.50
2022-12-03T05:14:16.846Z,-0.50
2022-12-03T05:19:20.036Z,-0.50
2022-12-03T05:24:23.241Z,-0.40
2022-12-03T05:29:28.085Z,-0.50
2022-12-03T05:34:31.234Z,-0.60
2022-12-03T05:39:34.434Z,-0.50
2022-12-03T05:44:38.874Z,-0.60
2022-12-03T05:49:42.070Z,-0.50
2022-12-03T05:54:45.296Z,-0.50
2022-12-03T05:59:50.024Z,-0.40
2022-12-03T06:04:53.457Z,-0.50
2022-12-03T06:09:56.880Z,-0.60
2022-12-03T06:15:01.453Z,-0.70
2022-12-03T06:20:06.359Z,-0.60
2022-12-03T06:25:10.778Z,-0.70
2022-12-03T06:30:15.613Z,-0.80
2022-12-03T06:35:19.034Z,-0.80
2022-12-03T06:40:22.380Z,-0.80
2022-12-03T06:45:27.624Z,-0.90
2022-12-03T06:50:30.953Z,-0.90
2022-12-03T06:55:34.168Z,-0.90
2022-12-03T07:00:38.648Z,-0.90
2022-12-03T07:05:41.908Z,-0.80
2022-12-03T07:10:45.020Z,-0.90
2022-12-03T07:15:49.530Z,-0.80
2022-12-03T07:20:52.733Z,-0.80
2022-12-03T07:25:56.435Z,-0.80
2022-12-03T07:31:00.891Z,-0.70
2022-12-03T07:36:04.238Z,-0.60
2022-12-03T07:41:07.387Z,-0.80
2022-12-03T07:46:12.068Z,-0.70
2022-12-03T07:51:15.684Z,-0.80
2022-12-03T07:56:19.339Z,-0.80
2022-12-03T08:01:23.854Z,-0.70
2022-12-03T08:06:27.058Z,-0.80
2022-12-03T08:11:30.323Z,-0.80
2022-12-03T08:16:39.200Z,-0.60
2022-12-03T08:21:42.714Z,-0.80
2022-12-03T08:26:49.255Z,-0.70
2022-12-03T08:31:57.507Z,-0.80
2022-12-03T08:37:06.195Z,-0.80
2022-12-03T08:42:31.515Z,-0.60
2022-12-03T08:47:35.986Z,-0.80
2022-12-03T08:52:39.385Z,-0.80
2022-12-03T08:57:43.717Z,-0.90
2022-12-03T09:02:52.343Z,-0.80
2022-12-03T09:07:55.748Z,-0.70
2022-12-03T09:12:59.329Z,-0.80
2022-12-03T09:18:04.044Z,-0.60
2022-12-03T09:23:07.620Z,-0.60
2022-12-03T09:28:10.921Z,-0.60
2022-12-03T09:33:15.371Z,-0.40
2022-12-03T09:38:18.568Z,-0.70
2022-12-03T09:43:21.972Z,-0.60
2022-12-03T09:48:26.638Z,-0.50
2022-12-03T09:53:30.097Z,-0.30
2022-12-03T09:58:35.036Z,-0.10
2022-12-03T10:03:45.487Z,-0.20
2022-12-03T10:08:51.015Z,0.00
2022-12-03T10:13:56.644Z,0.20
2022-12-03T10:19:02.191Z,0.20
2022-12-03T10:24:20.342Z,0.20
2022-12-03T10:29:29.847Z,0.00
2022-12-03T10:34:39.007Z,-0.10
2022-12-03T10:39:56.052Z,-0.10
2022-12-03T10:45:15.961Z,0.10
2022-12-03T10:50:20.438Z,0.00
2022-12-03T10:55:24.483Z,0.00
2022-12-03T11:00:27.607Z,-0.10
2022-12-03T11:05:32.230Z,-0.20
2022-12-03T11:10:36.004Z,-0.30
2022-12-03T11:15:44.201Z,-0.30
2022-12-03T11:21:07.806Z,-0.30
2022-12-03T11:26:17.065Z,-0.10
2022-12-03T11:31:37.813Z,0.10
2022-12-03T11:42:40.363Z,0.00
2022-12-03T11:47:45.559Z,0.00
2022-12-03T11:52:49.822Z,0.00
2022-12-03T11:57:59.474Z,0.10
2022-12-03T12:03:02.644Z,0.00
2022-12-03T12:08:06.063Z,0.00
2022-12-03T12:13:39.132Z,0.00
2022-12-03T12:18:44.508Z,0.20
2022-12-03T12:23:47.783Z,0.30
2022-12-03T12:28:50.906Z,-0.10
2022-12-03T12:33:55.332Z,0.00
2022-12-03T12:39:00.131Z,0.00
2022-12-03T12:44:09.530Z,-0.30
2022-12-03T12:49:15.038Z,-0.30
2022-12-03T12:54:18.795Z,-0.20
2022-12-03T12:59:24.531Z,-0.20
2022-12-03T13:04:30.621Z,-0.10
2022-12-03T13:09:33.869Z,0.00
2022-12-03T13:14:37.653Z,-0.20
2022-12-03T13:19:48.365Z,-0.10
2022-12-03T13:24:56.180Z,-0.20
2022-12-03T13:30:02.714Z,-0.20
2022-12-03T13:35:13.113Z,-0.20
2022-12-03T13:40:24.027Z,-0.30
2022-12-03T13:45:34.300Z,-0.10
2022-12-03T13:50:40.581Z,-0.10
2022-12-03T13:55:46.546Z,0.00
2022-12-03T14:00:49.704Z,-0.20
2022-12-03T14:05:54.220Z,-0.10
2022-12-03T14:11:00.325Z,-0.30
2022-12-03T14:16:04.712Z,-0.20
2022-12-03T14:21:09.360Z,-0.30
2022-12-03T14:26:12.669Z,-0.40
2022-12-03T14:31:15.924Z,-0.60
2022-12-03T14:36:20.922Z,-0.40
2022-12-03T14:41:42.576Z,-0.40
2022-12-03T14:46:45.667Z,-0.50
2022-12-03T14:51:50.191Z,-0.40
2022-12-03T14:56:53.418Z,-0.40
2022-12-03T15:01:56.645Z,-0.40
2022-12-03T15:07:01.249Z,-0.40
2022-12-03T15:12:05.173Z,-0.30
2022-12-03T15:17:08.624Z,-0.40
2022-12-03T15:22:13.356Z,-0.30
2022-12-03T15:27:16.462Z,-0.40
2022-12-03T15:32:19.607Z,-0.50
2022-12-03T15:37:27.651Z,-0.50
2022-12-03T15:42:30.829Z,-0.50
2022-12-03T15:47:33.998Z,-0.40
2022-12-03T15:52:38.469Z,-0.40
2022-12-03T15:57:41.689Z,-0.30
2022-12-03T16:02:50.864Z,-0.40
2022-12-03T16:07:57.575Z,-0.50
2022-12-03T16:13:00.992Z,-0.40
2022-12-03T16:18:04.709Z,-0.30
2022-12-03T16:23:10.132Z,-0.40
2022-12-03T16:28:13.575Z,-0.30
2022-12-03T16:33:21.183Z,-0.40
2022-12-03T16:38:28.777Z,-0.30
2022-12-03T16:43:35.439Z,-0.40
2022-12-03T16:48:38.762Z,-0.30
2022-12-03T16:53:43.290Z,-0.20
2022-12-03T16:58:46.691Z,-0.20
2022-12-03T17:03:49.753Z,-0.20
2022-12-03T17:08:54.426Z,-0.20
2022-12-03T17:13:57.536Z,-0.20
2022-12-03T17:19:00.727Z,-0.10
2022-12-03T17:24:05.747Z,-0.20
2022-12-03T17:29:08.818Z,-0.10
2022-12-03T17:34:12.116Z,0.00
2022-12-03T17:39:17.131Z,-0.20
2022-12-03T17:44:21.472Z,-0.30
2022-12-03T17:49:31.135Z,-0.20
2022-12-03T17:55:01.928Z,-0.10
2022-12-03T18:00:00.890Z,-0.20
2022-12-03T18:05:05.688Z,-0.10
2022-12-03T18:10:10.687Z,-0.20
2022-12-03T18:15:14.314Z,-0.10
2022-12-03T18:20:17.951Z,-0.20
2022-12-03T18:25:22.927Z,-0.10
2022-12-03T18:30:26.647Z,-0.10
2022-12-03T18:35:30.186Z,-0.10
2022-12-03T18:40:34.824Z,-0.20
2022-12-03T18:45:37.986Z,-0.20
2022-12-03T18:50:41.628Z,-0.10
2022-12-03T18:55:47.500Z,0.00
2022-12-03T19:00:54.983Z,0.00
2022-12-03T19:05:58.721Z,0.00
2022-12-03T19:11:03.175Z,0.00
2022-12-03T19:16:07.871Z,0.00
2022-12-03T19:21:12.816Z,-0.10
2022-12-03T19:26:17.339Z,-0.10
2022-12-03T19:31:21.149Z,0.00
2022-12-03T19:36:26.667Z,-0.10
2022-12-03T19:41:31.323Z,0.00
2022-12-03T19:46:34.701Z,0.00
2022-12-03T19:51:38.084Z,0.10
2022-12-03T19:56:43.094Z,0.00
2022-12-03T20:01:46.359Z,0.20
2022-12-03T20:06:49.653Z,0.10
2022-12-03T20:11:54.204Z,0.10
2022-12-03T20:16:57.318Z,0.10
2022-12-03T20:22:02.812Z,0.20
2022-12-03T20:27:07.729Z,0.10
2022-12-03T20:32:10.896Z,0.10
2022-12-03T20:37:13.976Z,0.10
2022-12-03T20:42:18.405Z,0.10
2022-12-03T20:47:21.771Z,0.20
2022-12-03T20:52:24.942Z,0.10
2022-12-03T20:57:29.624Z,0.10
2022-12-03T21:02:32.885Z,0.30
2022-12-03T21:07:36.113Z,0.30
2022-12-03T21:12:40.576Z,0.20
2022-12-03T21:17:43.749Z,0.20
2022-12-03T21:22:49.417Z,0.20
2022-12-03T21:27:55.093Z,0.20
2022-12-03T21:32:58.276Z,0.00
2022-12-03T21:38:01.351Z,0.30
2022-12-03T21:43:05.778Z,0.20
2022-12-03T21:48:09.179Z,0.20
2022-12-03T21:53:12.958Z,0.20
2022-12-03T21:58:17.502Z,0.20
2022-12-03T22:03:20.580Z,0.30
2022-12-03T22:08:23.727Z,0.30
2022-12-03T22:13:28.309Z,0.30
2022-12-03T22:18:31.719Z,0.30
2022-12-03T22:23:35.309Z,0.30
2022-12-03T22:28:42.547Z,0.10
2022-12-03T22:33:48.408Z,0.40
2022-12-03T22:38:51.696Z,0.20
2022-12-03T22:43:56.449Z,0.20
2022-12-03T22:49:06.452Z,0.20
2022-12-03T22:54:10.769Z,0.30
2022-12-03T22:59:15.312Z,0.30
2022-12-03T23:04:18.509Z,0.30
2022-12-03T23:09:21.762Z,0.30
2022-12-03T23:14:26.508Z,0.30
2022-12-03T23:19:32.458Z,0.30
2022-12-03T23:24:36.600Z,0.40
2022-12-03T23:29:41.493Z,0.40
2022-12-03T23:34:44.751Z,0.40
2022-12-03T23:39:48.100Z,0.40
2022-12-03T23:44:52.612Z,0.50
2022-12-03T23:49:55.959Z,0.30
2022-12-03T23:54:59.299Z,0.20
